createdAt,value
2023-02-28T00:01:10.398Z,5.02
2023-02-28T00:03:36.935Z,4.87
2023-02-28T00:06:07.932Z,4.81
2023-02-28T00:08:34.642Z,4.77
2023-02-28T00:11:05.833Z,4.72
2023-02-28T00:13:34.468Z,4.72
2023-02-28T00:16:06.792Z,4.89
2023-02-28T00:18:33.365Z,4.86
2023-02-28T00:21:00.596Z,4.74
2023-02-28T00:23:27.922Z,4.76
2023-02-28T00:25:54.703Z,4.62
2023-02-28T00:28:22.133Z,4.66
2023-02-28T00:30:48.726Z,4.63
2023-02-28T00:33:15.662Z,4.64
2023-02-28T00:35:42.203Z,4.74
2023-02-28T00:38:08.737Z,4.82
2023-02-28T00:40:35.173Z,4.91
2023-02-28T00:43:01.656Z,4.94
2023-02-28T00:45:28.058Z,4.93
2023-02-28T00:47:54.516Z,4.87
2023-02-28T00:50:21.604Z,4.80
2023-02-28T00:52:48.963Z,4.80
2023-02-28T00:55:15.872Z,4.80
2023-02-28T00:57:42.399Z,4.73
2023-02-28T01:00:09.801Z,4.74
2023-02-28T01:02:36.259Z,4.57
2023-02-28T01:05:02.725Z,4.53
2023-02-28T01:07:29.126Z,4.50
2023-02-28T01:09:55.553Z,4.66
2023-02-28T01:12:22.022Z,4.68
2023-02-28T01:14:48.453Z,4.68
2023-02-28T01:17:14.883Z,4.60
2023-02-28T01:19:41.297Z,4.65
2023-02-28T01:22:07.801Z,4.58
2023-02-28T01:24:34.593Z,4.59
2023-02-28T01:27:01.141Z,4.55
2023-02-28T01:29:27.589Z,4.61
2023-02-28T01:31:54.065Z,4.45
2023-02-28T01:34:20.567Z,4.46
2023-02-28T01:36:46.996Z,4.44
2023-02-28T01:39:13.844Z,4.47
2023-02-28T01:41:40.794Z,4.48
2023-02-28T01:44:28.877Z,4.51
2023-02-28T01:46:55.286Z,4.64
2023-02-28T01:49:21.820Z,4.72
2023-02-28T01:51:51.928Z,4.76
2023-02-28T01:54:26.577Z,4.62
2023-02-28T01:57:00.837Z,4.66
2023-02-28T01:59:45.948Z,4.54
2023-02-28T02:02:13.419Z,4.58
2023-02-28T02:04:47.114Z,4.64
2023-02-28T02:07:15.214Z,4.55
2023-02-28T02:09:41.627Z,4.52
2023-02-28T02:12:43.121Z,4.60
2023-02-28T02:15:33.131Z,4.66
2023-02-28T02:18:10.779Z,4.63
2023-02-28T02:21:08.805Z,4.49
2023-02-28T02:23:41.658Z,4.54
2023-02-28T02:26:17.055Z,4.66
2023-02-28T02:28:52.523Z,4.67
2023-02-28T02:31:41.190Z,4.67
2023-02-28T02:34:29.297Z,4.67
2023-02-28T02:37:52.821Z,4.58
2023-02-28T02:40:28.188Z,4.60
2023-02-28T02:43:03.367Z,4.50
2023-02-28T02:45:36.981Z,4.45
2023-02-28T02:48:07.631Z,4.32
2023-02-28T02:50:39.777Z,4.32
2023-02-28T02:53:08.064Z,4.30
2023-02-28T02:55:40.296Z,4.33
2023-02-28T02:58:11.759Z,4.35
2023-02-28T03:00:47.604Z,4.33
2023-02-28T03:03:18.538Z,4.36
2023-02-28T03:05:50.166Z,4.40
2023-02-28T03:08:16.562Z,4.44
2023-02-28T03:10:47.130Z,4.31
2023-02-28T03:13:42.820Z,4.22
2023-02-28T03:16:28.305Z,4.19
2023-02-28T03:18:55.139Z,4.18
2023-02-28T03:21:51.168Z,4.27
2023-02-28T03:24:42.428Z,4.12
2023-02-28T03:27:17.867Z,4.15
2023-02-28T03:29:51.115Z,4.25
2023-02-28T03:32:30.785Z,4.30
2023-02-28T03:35:10.515Z,4.23
2023-02-28T03:37:41.480Z,4.13
2023-02-28T03:40:16.674Z,4.26
2023-02-28T03:42:48.545Z,4.22
2023-02-28T03:45:17.348Z,4.21
2023-02-28T03:47:53.347Z,4.28
2023-02-28T03:50:25.523Z,4.18
2023-02-28T03:53:02.071Z,4.18
2023-02-28T03:55:39.454Z,4.13
2023-02-28T03:58:15.172Z,4.10
2023-02-28T04:00:47.737Z,4.17
2023-02-28T04:03:14.849Z,4.27
2023-02-28T04:05:54.079Z,4.27
2023-02-28T04:08:21.997Z,4.31
2023-02-28T04:10:58.551Z,4.17
2023-02-28T04:13:24.985Z,4.15
2023-02-28T04:15:51.400Z,4.10
2023-02-28T04:18:17.950Z,4.16
2023-02-28T04:20:44.556Z,4.17
2023-02-28T04:23:10.982Z,4.12
2023-02-28T04:25:37.432Z,4.09
2023-02-28T04:28:03.919Z,4.06
2023-02-28T04:30:30.606Z,4.05
2023-02-28T04:32:57.061Z,4.01
2023-02-28T04:35:23.578Z,4.04
2023-02-28T04:37:50.008Z,4.01
2023-02-28T04:40:16.595Z,3.92
2023-02-28T04:42:43.034Z,3.84
2023-02-28T04:45:11.247Z,3.88
2023-02-28T04:47:37.864Z,3.93
2023-02-28T04:50:04.721Z,3.94
2023-02-28T04:52:31.163Z,3.94
2023-02-28T04:54:57.622Z,3.96
2023-02-28T04:57:24.094Z,4.10
2023-02-28T04:59:50.568Z,4.13
2023-02-28T05:02:17.163Z,4.18
2023-02-28T05:04:43.687Z,4.19
2023-02-28T05:07:10.699Z,4.17
2023-02-28T05:09:37.142Z,4.15
2023-02-28T05:12:04.222Z,4.08
2023-02-28T05:14:30.674Z,3.99
2023-02-28T05:16:57.115Z,3.89
2023-02-28T05:19:23.535Z,3.75
2023-02-28T05:21:59.175Z,3.66
2023-02-28T05:24:25.814Z,3.63
2023-02-28T05:26:54.482Z,3.54
2023-02-28T05:29:21.846Z,3.55
2023-02-28T05:31:48.527Z,3.65
2023-02-28T05:34:16.985Z,3.53
2023-02-28T05:36:43.765Z,3.48
2023-02-28T05:39:13.489Z,3.50
2023-02-28T05:41:41.749Z,3.52
2023-02-28T05:44:08.432Z,3.42
2023-02-28T05:46:34.987Z,3.38
2023-02-28T05:49:01.865Z,3.37
2023-02-28T05:51:28.816Z,3.26
2023-02-28T05:53:55.775Z,3.25
2023-02-28T05:56:22.234Z,3.15
2023-02-28T05:58:48.692Z,3.04
2023-02-28T06:01:54.357Z,3.02
2023-02-28T06:04:31.492Z,3.04
2023-02-28T06:06:59.172Z,3.03
2023-02-28T06:09:26.010Z,2.94
2023-02-28T06:11:52.549Z,2.78
2023-02-28T06:14:20.422Z,2.87
2023-02-28T06:16:47.527Z,2.96
2023-02-28T06:19:14.557Z,2.99
2023-02-28T06:21:41.044Z,2.87
2023-02-28T06:24:07.980Z,2.95
2023-02-28T06:26:34.638Z,2.87
2023-02-28T06:29:01.933Z,2.95
2023-02-28T06:31:30.139Z,2.94
2023-02-28T06:33:57.581Z,3.01
2023-02-28T06:36:24.096Z,3.10
2023-02-28T06:38:55.459Z,3.15
2023-02-28T06:41:28.745Z,3.33
2023-02-28T06:43:55.650Z,3.45
2023-02-28T06:46:23.021Z,3.50
2023-02-28T06:48:49.727Z,3.49
2023-02-28T06:51:25.240Z,3.52
2023-02-28T06:53:52.412Z,3.55
2023-02-28T06:56:21.096Z,3.62
2023-02-28T06:58:49.680Z,3.63
2023-02-28T07:01:16.475Z,3.49
2023-02-28T07:03:43.524Z,3.54
2023-02-28T07:06:10.043Z,3.54
2023-02-28T07:08:41.060Z,3.53
2023-02-28T07:11:07.519Z,3.62
2023-02-28T07:13:34.152Z,3.81
2023-02-28T07:16:06.263Z,3.92
2023-02-28T07:18:33.074Z,4.16
2023-02-28T07:20:59.514Z,4.32
2023-02-28T07:23:26.008Z,4.40
2023-02-28T07:25:53.025Z,4.49
2023-02-28T07:28:19.497Z,4.46
2023-02-28T07:30:46.078Z,4.41
2023-02-28T07:33:12.608Z,4.34
2023-02-28T07:35:39.145Z,4.36
2023-02-28T07:38:05.724Z,4.42
2023-02-28T07:40:32.501Z,4.52
2023-02-28T07:43:01.657Z,4.60
2023-02-28T07:45:33.565Z,4.48
2023-02-28T07:48:00.008Z,4.53
2023-02-28T07:50:31.839Z,4.48
2023-02-28T07:53:01.455Z,4.69
2023-02-28T07:55:28.263Z,4.75
2023-02-28T07:57:55.277Z,4.98
2023-02-28T08:00:22.613Z,5.06
2023-02-28T08:02:49.193Z,5.16
2023-02-28T08:05:15.941Z,5.21
2023-02-28T08:07:42.483Z,5.05
2023-02-28T08:10:11.158Z,4.95
2023-02-28T08:12:37.706Z,5.08
2023-02-28T08:15:04.716Z,5.07
2023-02-28T08:17:32.048Z,5.08
2023-02-28T08:20:00.314Z,5.06
2023-02-28T08:22:26.773Z,5.14
2023-02-28T08:24:53.519Z,5.14
2023-02-28T08:27:20.124Z,5.36
2023-02-28T08:29:46.720Z,5.40
2023-02-28T08:32:27.488Z,5.37
2023-02-28T08:34:56.222Z,5.46
2023-02-28T08:37:22.673Z,5.48
2023-02-28T08:39:49.093Z,5.60
2023-02-28T08:42:15.618Z,5.53
2023-02-28T08:44:42.250Z,5.38
2023-02-28T08:47:08.795Z,5.41
2023-02-28T08:49:35.585Z,5.42
2023-02-28T08:52:02.059Z,5.49
2023-02-28T08:54:31.703Z,5.70
2023-02-28T08:56:58.482Z,5.71
2023-02-28T08:59:24.955Z,5.69
2023-02-28T09:01:51.548Z,5.80
2023-02-28T09:04:19.911Z,5.80
2023-02-28T09:06:47.285Z,5.90
2023-02-28T09:09:13.836Z,5.92
2023-02-28T09:11:40.284Z,6.04
2023-02-28T09:14:06.771Z,6.04
2023-02-28T09:16:35.030Z,6.16
2023-02-28T09:19:02.583Z,5.93
2023-02-28T09:21:31.668Z,5.97
2023-02-28T09:23:58.262Z,6.38
2023-02-28T09:26:32.312Z,6.43
2023-02-28T09:29:05.876Z,6.56
2023-02-28T09:31:32.420Z,6.47
2023-02-28T09:34:00.287Z,6.47
2023-02-28T09:36:43.211Z,6.53
2023-02-28T09:39:11.234Z,6.63
2023-02-28T09:41:48.251Z,6.46
2023-02-28T09:44:25.210Z,6.51
2023-02-28T09:46:56.881Z,6.56
2023-02-28T09:49:34.210Z,6.43
2023-02-28T09:52:09.964Z,6.60
2023-02-28T09:54:37.361Z,6.54
2023-02-28T09:57:14.631Z,6.66
2023-02-28T10:00:02.964Z,6.62
2023-02-28T10:03:06.729Z,6.93
2023-02-28T10:05:43.483Z,6.98
2023-02-28T10:08:29.038Z,6.87
2023-02-28T10:11:05.277Z,7.17
2023-02-28T10:13:36.743Z,7.29
2023-02-28T10:16:06.429Z,7.17
2023-02-28T10:18:44.479Z,7.28
2023-02-28T10:21:24.382Z,7.55
2023-02-28T10:23:57.336Z,7.44
2023-02-28T10:26:27.524Z,7.59
2023-02-28T10:28:54.317Z,7.73
2023-02-28T10:31:21.497Z,7.92
2023-02-28T10:33:48.483Z,7.97
2023-02-28T10:36:18.160Z,7.69
2023-02-28T10:38:46.253Z,7.71
2023-02-28T10:41:13.403Z,7.40
2023-02-28T10:43:41.941Z,7.50
2023-02-28T10:46:16.164Z,7.69
2023-02-28T10:48:58.135Z,7.98
2023-02-28T10:51:25.385Z,7.99
2023-02-28T10:54:02.328Z,7.80
2023-02-28T10:56:30.367Z,7.89
2023-02-28T10:59:09.654Z,7.83
2023-02-28T11:01:44.325Z,7.83
2023-02-28T11:04:22.988Z,7.78
2023-02-28T11:07:22.278Z,7.74
2023-02-28T11:09:53.846Z,7.79
2023-02-28T11:12:31.436Z,8.11
2023-02-28T11:15:02.908Z,8.06
2023-02-28T11:17:31.916Z,8.30
2023-02-28T11:20:04.316Z,8.27
2023-02-28T11:22:39.907Z,8.49
2023-02-28T11:25:20.863Z,8.45
2023-02-28T11:27:52.928Z,8.18
2023-02-28T11:30:31.492Z,8.29
2023-02-28T11:32:58.714Z,8.38
2023-02-28T11:35:35.580Z,8.62
2023-02-28T11:38:02.368Z,8.85
2023-02-28T11:40:37.852Z,8.62
2023-02-28T11:43:07.458Z,8.49
2023-02-28T11:45:43.785Z,8.28
2023-02-28T11:48:13.392Z,8.43
2023-02-28T11:50:50.450Z,8.72
2023-02-28T11:53:22.533Z,8.79
2023-02-28T11:55:52.209Z,8.95
2023-02-28T11:58:30.884Z,9.02
2023-02-28T12:01:25.890Z,9.05
2023-02-28T12:04:15.583Z,9.10
2023-02-28T12:06:58.450Z,8.66
2023-02-28T12:09:52.457Z,8.51
2023-02-28T12:12:42.841Z,8.38
2023-02-28T12:15:21.918Z,8.38
2023-02-28T12:18:08.437Z,8.29
2023-02-28T12:21:02.715Z,8.28
2023-02-28T12:24:09.457Z,8.22
2023-02-28T12:26:49.287Z,8.15
2023-02-28T12:29:26.942Z,8.36
2023-02-28T12:32:04.807Z,8.32
2023-02-28T12:35:07.353Z,8.31
2023-02-28T12:37:47.119Z,8.57
2023-02-28T12:40:18.934Z,8.56
2023-02-28T12:42:50.381Z,8.49
2023-02-28T12:45:22.299Z,8.43
2023-02-28T12:47:54.037Z,8.51
2023-02-28T12:50:20.916Z,8.50
2023-02-28T12:53:18.852Z,8.75
2023-02-28T12:56:10.324Z,8.62
2023-02-28T12:58:46.215Z,8.69
2023-02-28T13:01:26.754Z,8.67
2023-02-28T13:04:14.910Z,8.68
2023-02-28T13:06:56.508Z,8.64
2023-02-28T13:09:22.902Z,8.76
2023-02-28T13:11:52.717Z,8.53
2023-02-28T13:14:36.645Z,8.22
2023-02-28T13:17:12.732Z,8.12
2023-02-28T13:19:43.986Z,8.27
2023-02-28T13:22:46.201Z,8.23
2023-02-28T13:25:34.221Z,8.15
2023-02-28T13:28:04.943Z,8.25
2023-02-28T13:30:56.967Z,8.43
2023-02-28T13:33:26.506Z,8.51
2023-02-28T13:36:01.804Z,8.68
2023-02-28T13:38:37.884Z,8.72
2023-02-28T13:41:32.577Z,8.71
2023-02-28T13:44:15.967Z,8.85
2023-02-28T13:46:48.532Z,8.86
2023-02-28T13:49:24.262Z,8.94
2023-02-28T13:52:07.417Z,9.07
2023-02-28T13:55:09.503Z,9.20
2023-02-28T13:57:45.936Z,8.85
2023-02-28T14:00:46.814Z,8.91
2023-02-28T14:03:22.331Z,8.92
2023-02-28T14:06:11.217Z,8.98
2023-02-28T14:08:38.042Z,9.02
2023-02-28T14:11:24.394Z,9.05
2023-02-28T14:13:51.153Z,9.07
2023-02-28T14:16:24.025Z,9.06
2023-02-28T14:18:56.274Z,9.04
2023-02-28T14:21:29.969Z,9.07
2023-02-28T14:24:06.397Z,8.96
2023-02-28T14:27:03.633Z,8.83
2023-02-28T14:29:51.125Z,8.62
2023-02-28T14:32:43.101Z,8.67
2023-02-28T14:35:40.846Z,8.63
2023-02-28T14:38:18.861Z,8.73
2023-02-28T14:40:48.197Z,8.81
2023-02-28T14:43:24.829Z,8.71
2023-02-28T14:45:58.198Z,8.56
2023-02-28T14:48:27.017Z,8.69
2023-02-28T14:51:01.510Z,8.64
2023-02-28T14:53:37.402Z,8.53
2023-02-28T14:56:04.484Z,8.39
2023-02-28T14:58:33.553Z,8.31
2023-02-28T15:01:05.201Z,8.46
2023-02-28T15:03:40.149Z,8.59
2023-02-28T15:06:14.392Z,8.77
2023-02-28T15:08:41.287Z,8.84
2023-02-28T15:11:20.117Z,8.67
2023-02-28T15:13:52.652Z,8.68
2023-02-28T15:16:27.097Z,8.63
2023-02-28T15:18:56.612Z,8.65
2023-02-28T15:21:28.533Z,8.68
2023-02-28T15:24:24.769Z,8.75
2023-02-28T15:27:04.433Z,8.82
2023-02-28T15:29:38.531Z,8.75
2023-02-28T15:32:08.478Z,8.75
2023-02-28T15:34:44.616Z,8.72
2023-02-28T15:37:29.294Z,8.61
2023-02-28T15:39:57.115Z,8.68
2023-02-28T15:42:29.449Z,8.69
2023-02-28T15:44:55.973Z,8.58
2023-02-28T15:47:24.991Z,8.51
2023-02-28T15:49:59.655Z,8.48
2023-02-28T15:52:44.906Z,8.46
2023-02-28T15:55:19.221Z,8.49
2023-02-28T15:57:47.564Z,8.42
2023-02-28T16:00:17.046Z,8.39
2023-02-28T16:02:45.606Z,8.38
2023-02-28T16:05:12.146Z,8.29
2023-02-28T16:07:40.917Z,8.38
2023-02-28T16:10:09.223Z,8.41
2023-02-28T16:12:38.551Z,8.42
2023-02-28T16:15:17.046Z,8.43
2023-02-28T16:17:43.760Z,8.43
2023-02-28T16:20:16.829Z,8.43
2023-02-28T16:22:44.116Z,8.44
2023-02-28T16:25:19.446Z,8.43
2023-02-28T16:27:50.376Z,8.38
2023-02-28T16:30:23.893Z,8.33
2023-02-28T16:32:51.427Z,8.28
2023-02-28T16:35:19.064Z,8.26
2023-02-28T16:37:46.112Z,8.21
2023-02-28T16:40:18.903Z,8.16
2023-02-28T16:42:47.117Z,8.03
2023-02-28T16:45:24.309Z,7.91
2023-02-28T16:47:51.100Z,7.84
2023-02-28T16:50:20.821Z,7.81
2023-02-28T16:52:47.468Z,7.71
2023-02-28T16:55:14.072Z,7.67
2023-02-28T16:57:41.311Z,7.69
2023-02-28T17:00:12.187Z,7.59
2023-02-28T17:02:41.281Z,7.49
2023-02-28T17:05:11.804Z,7.47
2023-02-28T17:07:39.605Z,7.42
2023-02-28T17:10:15.657Z,7.38
2023-02-28T17:12:42.135Z,7.33
2023-02-28T17:15:11.190Z,7.29
2023-02-28T17:17:38.075Z,7.26
2023-02-28T17:20:06.898Z,7.18
2023-02-28T17:22:33.803Z,7.16
2023-02-28T17:25:00.281Z,7.22
2023-02-28T17:27:26.771Z,7.12
2023-02-28T17:29:53.247Z,7.04
2023-02-28T17:32:19.996Z,7.00
2023-02-28T17:34:47.063Z,6.78
2023-02-28T17:37:13.804Z,6.67
2023-02-28T17:39:40.311Z,6.64
2023-02-28T17:42:06.879Z,6.55
2023-02-28T17:44:34.138Z,6.53
2023-02-28T17:47:00.966Z,6.51
2023-02-28T17:49:28.080Z,6.47
2023-02-28T17:51:54.549Z,6.45
2023-02-28T17:54:21.112Z,6.37
2023-02-28T17:56:47.630Z,6.28
2023-02-28T17:59:14.843Z,6.28
2023-02-28T18:01:41.404Z,6.30
2023-02-28T18:04:07.941Z,6.21
2023-02-28T18:06:50.921Z,6.17
2023-02-28T18:09:23.037Z,6.13
2023-02-28T18:11:54.336Z,6.04
2023-02-28T18:14:23.595Z,6.04
2023-02-28T18:16:50.788Z,6.11
2023-02-28T18:19:20.164Z,6.17
2023-02-28T18:21:49.492Z,6.16
2023-02-28T18:24:17.547Z,6.16
2023-02-28T18:26:44.509Z,6.15
2023-02-28T18:29:19.292Z,6.08
2023-02-28T18:31:45.856Z,5.94
2023-02-28T18:34:12.351Z,5.81
2023-02-28T18:36:39.514Z,5.77
2023-02-28T18:39:06.098Z,5.88
2023-02-28T18:41:32.749Z,5.97
2023-02-28T18:44:10.356Z,5.87
2023-02-28T18:46:40.917Z,5.79
2023-02-28T18:49:07.413Z,5.77
2023-02-28T18:51:33.896Z,5.72
2023-02-28T18:54:00.484Z,5.72
2023-02-28T18:56:27.094Z,5.76
2023-02-28T18:58:53.681Z,5.74
2023-02-28T19:01:30.123Z,5.69
2023-02-28T19:03:57.523Z,5.64
2023-02-28T19:06:24.055Z,5.62
2023-02-28T19:08:54.978Z,5.59
2023-02-28T19:11:24.267Z,5.59
2023-02-28T19:13:50.991Z,5.58
2023-02-28T19:16:20.203Z,5.52
2023-02-28T19:18:46.897Z,5.49
2023-02-28T19:21:16.002Z,5.50
2023-02-28T19:23:43.122Z,5.56
2023-02-28T19:26:16.100Z,5.43
2023-02-28T19:28:42.905Z,5.48
2023-02-28T19:31:15.854Z,5.54
2023-02-28T19:33:42.747Z,5.50
2023-02-28T19:36:12.164Z,5.44
2023-02-28T19:38:39.519Z,5.45
2023-02-28T19:41:09.187Z,5.47
2023-02-28T19:43:36.613Z,5.45
2023-02-28T19:46:03.889Z,5.47
2023-02-28T19:48:30.865Z,5.33
2023-02-28T19:51:07.153Z,5.12
2023-02-28T19:53:37.028Z,5.02
2023-02-28T19:56:04.823Z,4.98
2023-02-28T19:58:32.834Z,5.03
2023-02-28T20:01:01.585Z,4.97
2023-02-28T20:03:28.555Z,4.97
2023-02-28T20:06:04.896Z,5.03
2023-02-28T20:08:31.629Z,5.02
2023-02-28T20:11:03.960Z,4.97
2023-02-28T20:13:30.777Z,5.00
2023-02-28T20:16:06.426Z,5.02
2023-02-28T20:18:34.254Z,4.96
2023-02-28T20:21:01.988Z,5.00
2023-02-28T20:23:29.399Z,4.98
2023-02-28T20:26:00.054Z,4.95
2023-02-28T20:28:27.202Z,4.88
2023-02-28T20:30:53.878Z,4.78
2023-02-28T20:33:21.677Z,4.81
2023-02-28T20:35:49.665Z,4.84
2023-02-28T20:38:16.362Z,4.81
2023-02-28T20:40:42.947Z,4.90
2023-02-28T20:43:09.817Z,4.73
2023-02-28T20:45:36.635Z,4.51
2023-02-28T20:48:03.751Z,4.36
2023-02-28T20:50:30.952Z,4.26
2023-02-28T20:52:57.836Z,4.15
2023-02-28T20:55:24.372Z,4.09
2023-02-28T20:57:50.930Z,4.04
2023-02-28T21:00:20.709Z,4.14
2023-02-28T21:02:47.357Z,4.33
2023-02-28T21:05:14.472Z,4.42
2023-02-28T21:07:43.814Z,4.33
2023-02-28T21:10:11.466Z,4.29
2023-02-28T21:12:38.094Z,4.29
2023-02-28T21:15:04.921Z,4.32
2023-02-28T21:17:31.521Z,4.35
2023-02-28T21:19:58.080Z,4.45
2023-02-28T21:22:27.052Z,4.33
2023-02-28T21:24:53.589Z,4.21
2023-02-28T21:27:20.180Z,4.24
2023-02-28T21:29:46.750Z,4.14
2023-02-28T21:32:14.603Z,4.04
2023-02-28T21:34:41.654Z,4.06
2023-02-28T21:37:08.649Z,4.15
2023-02-28T21:39:35.817Z,4.18
2023-02-28T21:42:04.404Z,4.19
2023-02-28T21:44:33.599Z,4.20
2023-02-28T21:47:03.066Z,4.24
2023-02-28T21:49:30.250Z,4.33
2023-02-28T21:51:57.625Z,4.32
2023-02-28T21:54:24.790Z,4.46
2023-02-28T21:56:51.645Z,4.37
2023-02-28T21:59:19.271Z,4.28
2023-02-28T22:01:46.486Z,4.25
2023-02-28T22:04:22.370Z,4.31
2023-02-28T22:06:52.070Z,4.39
2023-02-28T22:09:18.785Z,4.34
2023-02-28T22:11:45.872Z,4.38
2023-02-28T22:14:12.671Z,4.36
2023-02-28T22:16:51.307Z,4.27
2023-02-28T22:19:20.000Z,4.13
2023-02-28T22:21:47.410Z,4.11
2023-02-28T22:24:14.749Z,4.14
2023-02-28T22:26:41.309Z,4.17
2023-02-28T22:29:07.808Z,4.10
2023-02-28T22:31:35.985Z,4.07
2023-02-28T22:34:06.166Z,4.01
2023-02-28T22:36:33.470Z,3.92
2023-02-28T22:39:03.077Z,3.89
2023-02-28T22:41:30.237Z,3.87
2023-02-28T22:43:59.825Z,3.74
2023-02-28T22:46:29.127Z,3.80
2023-02-28T22:48:57.558Z,3.79
2023-02-28T22:51:25.591Z,3.77
2023-02-28T22:53:53.837Z,3.85
2023-02-28T22:56:25.065Z,3.85
2023-02-28T22:58:59.604Z,3.91
2023-02-28T23:01:28.518Z,3.97
2023-02-28T23:03:55.514Z,3.98
2023-02-28T23:06:26.306Z,3.94
2023-02-28T23:08:55.454Z,3.80
2023-02-28T23:11:29.158Z,3.62
2023-02-28T23:13:58.764Z,3.65
2023-02-28T23:16:30.039Z,3.80
2023-02-28T23:18:57.371Z,3.81
2023-02-28T23:21:24.150Z,3.88
2023-02-28T23:23:50.614Z,3.93
2023-02-28T23:26:17.092Z,3.91
2023-02-28T23:28:43.483Z,3.94
2023-02-28T23:31:10.010Z,3.95
2023-02-28T23:33:36.771Z,3.91
2023-02-28T23:36:14.174Z,3.92
2023-02-28T23:38:42.098Z,4.02
2023-02-28T23:41:10.325Z,3.93
2023-02-28T23:43:37.455Z,3.74
2023-02-28T23:46:04.603Z,3.66
2023-02-28T23:48:31.200Z,3.50
2023-02-28T23:51:08.367Z,3.38
2023-02-28T23:53:37.109Z,3.37
2023-02-28T23:56:04.295Z,3.58
2023-02-28T23:58:30.848Z,3.69
